Time;durP1;ratioP1;P1;durP2;ratioP2;P2;SDS_P1;SDS_P2;PMS_P1;PMS_P2;Temp;Humidity;BMP_temperature;BMP_pressure;BME280_temperature;BME280_humidity;BME280_pressure;Samples;Min_cycle;Max_cycle;Signal;HPM_P1;HPM_P2
2021/03/29 00:02:16;;;;;;;1.92;1.30;;;;;;;;;;5134412;27;20468;-52
2021/03/29 00:04:42;;;;;;;1.50;1.17;;;;;;;;;;5132402;27;20874;-52
2021/03/29 00:07:09;;;;;;;1.13;1.05;;;;;;;;;;5117165;27;20204;-52
2021/03/29 00:09:36;;;;;;;1.33;1.10;;;;;;;;;;5134442;27;20200;-52
2021/03/29 00:12:04;;;;;;;2.83;1.30;;;;;;;;;;5134773;27;20177;-52
2021/03/29 00:14:31;;;;;;;1.67;1.17;;;;;;;;;;5123448;27;20227;-52
2021/03/29 00:16:57;;;;;;;1.55;1.17;;;;;;;;;;5115574;28;20184;-52
2021/03/29 00:19:25;;;;;;;1.98;1.30;;;;;;;;;;5114217;28;20173;-52
2021/03/29 00:21:51;;;;;;;1.67;1.20;;;;;;;;;;5115486;28;20181;-52
2021/03/29 00:24:17;;;;;;;1.60;1.25;;;;;;;;;;5121346;28;20184;-52
2021/03/29 00:26:44;;;;;;;1.58;1.40;;;;;;;;;;5120961;28;20173;-52
2021/03/29 00:29:10;;;;;;;2.42;1.10;;;;;;;;;;5134099;28;20214;-51
2021/03/29 00:31:36;;;;;;;2.13;1.40;;;;;;;;;;5133018;28;20169;-51
2021/03/29 00:34:02;;;;;;;2.28;1.10;;;;;;;;;;5131660;28;20585;-51
2021/03/29 00:36:28;;;;;;;1.48;1.27;;;;;;;;;;5097041;28;20188;-51
2021/03/29 00:38:55;;;;;;;2.20;1.23;;;;;;;;;;5104825;28;20177;-51
2021/03/29 00:41:22;;;;;;;1.52;1.00;;;;;;;;;;5116442;28;20185;-51
2021/03/29 00:43:49;;;;;;;1.40;1.30;;;;;;;;;;5118616;28;20265;-51
2021/03/29 00:46:16;;;;;;;1.80;1.27;;;;;;;;;;5117982;28;20234;-51
2021/03/29 00:48:43;;;;;;;1.83;1.30;;;;;;;;;;5119067;27;20219;-51
2021/03/29 00:51:12;;;;;;;1.33;1.23;;;;;;;;;;5118030;27;20268;-51
2021/03/29 00:53:39;;;;;;;1.08;0.90;;;;;;;;;;5119049;27;20185;-51
2021/03/29 00:56:05;;;;;;;1.27;0.95;;;;;;;;;;5123820;27;20441;-51
2021/03/29 00:58:32;;;;;;;1.40;1.27;;;;;;;;;;5138373;27;20185;-51
2021/03/29 01:01:01;;;;;;;1.60;1.33;;;;;;;;;;5121978;27;20205;-51
2021/03/29 01:03:29;;;;;;;1.88;1.23;;;;;;;;;;5118661;27;20181;-51
2021/03/29 01:06:06;;;;;;;1.92;1.00;;;;;;;;;;5118617;27;20296;-51
2021/03/29 01:08:37;;;;;;;1.20;1.10;;;;;;;;;;5117388;27;20226;-51
2021/03/29 01:11:04;;;;;;;2.92;1.30;;;;;;;;;;5138542;27;20165;-51
2021/03/29 01:13:31;;;;;;;1.88;1.20;;;;;;;;;;5136134;27;20427;-51
2021/03/29 01:15:58;;;;;;;1.27;1.17;;;;;;;;;;5118906;27;20636;-51
2021/03/29 01:18:25;;;;;;;1.75;1.23;;;;;;;;;;5137784;27;20655;-52
2021/03/29 01:21:10;;;;;;;1.08;0.98;;;;;;;;;;5138018;27;20281;-52
2021/03/29 01:23:36;;;;;;;1.23;1.10;;;;;;;;;;5133328;27;20256;-52
2021/03/29 01:26:23;;;;;;;1.83;1.10;;;;;;;;;;5129208;27;20177;-52
2021/03/29 01:28:49;;;;;;;2.10;1.20;;;;;;;;;;5103384;28;20255;-52
2021/03/29 01:31:15;;;;;;;1.60;1.10;;;;;;;;;;5118595;27;20226;-52
2021/03/29 01:33:41;;;;;;;1.35;0.80;;;;;;;;;;5118100;27;20181;-52
2021/03/29 01:36:08;;;;;;;1.15;1.05;;;;;;;;;;5136092;27;20225;-52
2021/03/29 01:38:35;;;;;;;2.22;1.10;;;;;;;;;;5136496;27;20192;-52
2021/03/29 01:41:01;;;;;;;1.38;1.02;;;;;;;;;;5130092;27;20182;-52
2021/03/29 01:43:28;;;;;;;0.60;0.60;;;;;;;;;;5137112;27;20212;-52
2021/03/29 01:45:55;;;;;;;2.03;1.10;;;;;;;;;;5134520;27;20199;-52
2021/03/29 01:48:21;;;;;;;0.95;0.95;;;;;;;;;;5116744;28;20197;-52
2021/03/29 01:50:47;;;;;;;1.02;0.98;;;;;;;;;;5129197;27;20229;-52
2021/03/29 01:53:14;;;;;;;1.20;1.10;;;;;;;;;;5122616;27;20177;-51
2021/03/29 01:55:41;;;;;;;1.98;1.08;;;;;;;;;;5115831;28;20177;-51
2021/03/29 01:58:10;;;;;;;1.00;0.90;;;;;;;;;;5131666;27;20184;-52
2021/03/29 02:00:40;;;;;;;1.70;1.20;;;;;;;;;;5133374;27;20205;-52
2021/03/29 02:03:07;;;;;;;0.90;0.90;;;;;;;;;;5125755;27;20458;-52
2021/03/29 02:05:33;;;;;;;1.60;1.30;;;;;;;;;;5122185;27;20211;-52
2021/03/29 02:08:00;;;;;;;1.20;0.93;;;;;;;;;;5137041;27;20253;-52
2021/03/29 02:10:28;;;;;;;1.13;1.02;;;;;;;;;;5132574;27;20184;-53
2021/03/29 02:12:55;;;;;;;1.00;1.00;;;;;;;;;;5120390;27;20192;-53
2021/03/29 02:15:25;;;;;;;1.08;0.93;;;;;;;;;;5123888;27;20184;-53
2021/03/29 02:17:55;;;;;;;1.85;1.10;;;;;;;;;;5137156;27;20180;-53
2021/03/29 02:20:24;;;;;;;1.25;0.95;;;;;;;;;;5131996;27;20181;-52
2021/03/29 02:22:51;;;;;;;2.05;1.10;;;;;;;;;;5131646;27;20185;-52
2021/03/29 02:25:18;;;;;;;0.90;0.90;;;;;;;;;;5122025;27;20268;-52
2021/03/29 02:27:47;;;;;;;2.15;1.00;;;;;;;;;;5098224;28;20235;-52
2021/03/29 02:30:14;;;;;;;1.00;0.90;;;;;;;;;;5123216;27;20169;-52
2021/03/29 02:32:42;;;;;;;0.98;0.85;;;;;;;;;;5128811;27;20222;-52
2021/03/29 02:35:09;;;;;;;1.05;0.80;;;;;;;;;;5125350;27;20547;-52
2021/03/29 02:37:36;;;;;;;1.20;1.00;;;;;;;;;;5117682;27;20292;-52
2021/03/29 02:40:02;;;;;;;1.05;0.90;;;;;;;;;;5136161;27;20180;-52
2021/03/29 02:42:28;;;;;;;1.98;1.10;;;;;;;;;;5129497;27;20195;-52
2021/03/29 02:44:54;;;;;;;0.88;0.88;;;;;;;;;;5130792;27;20177;-52
2021/03/29 02:47:20;;;;;;;1.55;1.15;;;;;;;;;;5133438;27;20230;-52
2021/03/29 02:49:48;;;;;;;1.20;1.08;;;;;;;;;;5125949;27;20741;-52
2021/03/29 02:52:15;;;;;;;1.95;1.13;;;;;;;;;;5125933;27;20242;-52
2021/03/29 02:54:42;;;;;;;1.55;1.00;;;;;;;;;;5114946;27;20181;-52
2021/03/29 02:57:08;;;;;;;1.35;0.90;;;;;;;;;;5115896;28;20173;-52
2021/03/29 02:59:34;;;;;;;0.90;0.90;;;;;;;;;;5116392;27;20185;-52
2021/03/29 03:02:00;;;;;;;1.13;0.90;;;;;;;;;;5099084;28;20201;-52
2021/03/29 03:04:26;;;;;;;1.08;0.73;;;;;;;;;;5114351;28;20173;-52
2021/03/29 03:06:52;;;;;;;0.90;0.80;;;;;;;;;;5134463;27;20509;-52
2021/03/29 03:09:19;;;;;;;0.90;0.90;;;;;;;;;;5135495;27;20228;-52
2021/03/29 03:11:46;;;;;;;1.20;1.05;;;;;;;;;;5133127;27;20303;-52
2021/03/29 03:14:13;;;;;;;1.75;0.88;;;;;;;;;;5132298;27;20181;-52
2021/03/29 03:16:39;;;;;;;0.80;0.80;;;;;;;;;;5123731;27;20182;-52
2021/03/29 03:19:07;;;;;;;1.40;1.00;;;;;;;;;;5116846;27;20460;-52
2021/03/29 03:21:34;;;;;;;1.20;1.10;;;;;;;;;;5122034;27;20188;-52
2021/03/29 03:24:00;;;;;;;0.88;0.80;;;;;;;;;;5128097;27;20192;-53
2021/03/29 03:26:26;;;;;;;0.98;0.90;;;;;;;;;;5135119;27;20176;-53
2021/03/29 03:28:53;;;;;;;1.00;0.90;;;;;;;;;;5132233;27;20235;-53
2021/03/29 03:31:19;;;;;;;1.13;1.02;;;;;;;;;;5125817;27;20189;-52
2021/03/29 03:33:45;;;;;;;0.82;0.82;;;;;;;;;;5130551;27;20181;-52
2021/03/29 03:36:12;;;;;;;1.10;0.70;;;;;;;;;;5114875;28;20613;-52
2021/03/29 03:38:43;;;;;;;0.98;0.73;;;;;;;;;;5115859;28;20192;-52
2021/03/29 03:41:10;;;;;;;0.88;0.80;;;;;;;;;;5117102;27;20200;-53
2021/03/29 03:43:37;;;;;;;1.13;0.90;;;;;;;;;;5131529;27;20206;-52
2021/03/29 03:46:03;;;;;;;1.17;0.90;;;;;;;;;;5122511;27;20181;-52
2021/03/29 03:48:30;;;;;;;1.30;0.98;;;;;;;;;;5126096;27;20222;-52
2021/03/29 03:50:57;;;;;;;0.80;0.80;;;;;;;;;;5116997;27;20180;-52
2021/03/29 03:53:23;;;;;;;1.02;0.88;;;;;;;;;;5134605;27;20196;-53
2021/03/29 03:55:53;;;;;;;1.00;0.90;;;;;;;;;;5117688;27;20185;-53
2021/03/29 03:58:20;;;;;;;1.23;1.00;;;;;;;;;;5115449;27;20177;-53
2021/03/29 04:00:47;;;;;;;0.73;0.70;;;;;;;;;;5128599;27;20200;-53
2021/03/29 04:03:13;;;;;;;1.05;0.98;;;;;;;;;;5116765;27;20185;-53
2021/03/29 04:05:39;;;;;;;1.00;0.80;;;;;;;;;;5114948;28;20177;-53
2021/03/29 04:08:05;;;;;;;1.25;0.90;;;;;;;;;;5120323;27;20252;-53
2021/03/29 04:13:07;;;;;;;1.35;0.80;;;;;;;;;;5117750;27;20519;-53
2021/03/29 04:15:34;;;;;;;0.90;0.82;;;;;;;;;;5121733;28;20182;-53
2021/03/29 04:18:00;;;;;;;1.20;0.90;;;;;;;;;;5134314;27;20173;-53
2021/03/29 04:20:26;;;;;;;2.17;0.70;;;;;;;;;;5121521;27;20192;-53
2021/03/29 04:22:52;;;;;;;2.30;0.93;;;;;;;;;;5131180;28;20224;-53
2021/03/29 04:25:19;;;;;;;8.50;1.40;;;;;;;;;;5127960;28;20185;-53
2021/03/29 04:27:45;;;;;;;2.00;1.20;;;;;;;;;;5124548;28;20195;-53
2021/03/29 04:30:12;;;;;;;2.05;1.23;;;;;;;;;;5125456;28;20185;-53
2021/03/29 04:32:41;;;;;;;11.80;1.88;;;;;;;;;;5128794;28;20191;-53
2021/03/29 04:35:08;;;;;;;1.90;1.10;;;;;;;;;;5121429;28;20561;-53
2021/03/29 04:37:34;;;;;;;3.63;1.55;;;;;;;;;;5111670;28;20177;-53
2021/03/29 04:40:00;;;;;;;3.47;1.27;;;;;;;;;;5124001;28;20282;-53
2021/03/29 04:42:26;;;;;;;2.85;1.00;;;;;;;;;;5126810;28;20220;-52
2021/03/29 04:44:52;;;;;;;3.13;1.02;;;;;;;;;;5128252;28;20184;-52
2021/03/29 04:47:18;;;;;;;2.65;1.42;;;;;;;;;;5127801;28;20181;-52
2021/03/29 04:49:44;;;;;;;3.08;1.20;;;;;;;;;;5132902;28;20442;-52
2021/03/29 04:52:10;;;;;;;3.17;1.00;;;;;;;;;;5123954;28;20187;-52
2021/03/29 04:54:36;;;;;;;3.83;1.40;;;;;;;;;;5114588;28;20169;-52
2021/03/29 04:57:03;;;;;;;1.65;1.10;;;;;;;;;;5132510;28;20179;-52
2021/03/29 04:59:29;;;;;;;2.83;0.93;;;;;;;;;;5132999;28;20199;-52
2021/03/29 05:01:55;;;;;;;3.10;1.20;;;;;;;;;;5132722;28;20185;-52
2021/03/29 05:04:21;;;;;;;3.47;1.55;;;;;;;;;;5132062;28;20250;-52
2021/03/29 05:06:47;;;;;;;1.00;0.90;;;;;;;;;;5129759;28;20192;-52
2021/03/29 05:09:13;;;;;;;4.35;1.10;;;;;;;;;;5132174;28;20219;-52
2021/03/29 05:11:53;;;;;;;5.28;1.25;;;;;;;;;;5115242;28;20181;-52
2021/03/29 05:14:19;;;;;;;2.35;1.20;;;;;;;;;;5113431;28;20549;-52
2021/03/29 05:16:45;;;;;;;2.60;1.27;;;;;;;;;;5133021;28;20667;-52
2021/03/29 05:19:11;;;;;;;1.92;1.20;;;;;;;;;;5121468;28;20196;-52
2021/03/29 05:21:38;;;;;;;2.40;1.08;;;;;;;;;;5115541;27;20185;-52
2021/03/29 05:24:05;;;;;;;1.52;1.05;;;;;;;;;;5120905;28;20191;-52
2021/03/29 05:26:31;;;;;;;2.33;1.20;;;;;;;;;;5132147;27;20623;-52
2021/03/29 05:28:57;;;;;;;1.58;1.10;;;;;;;;;;5135818;27;20196;-52
2021/03/29 05:31:23;;;;;;;1.40;1.13;;;;;;;;;;5134096;27;20457;-52
2021/03/29 05:33:49;;;;;;;4.28;1.20;;;;;;;;;;5136261;27;20173;-52
2021/03/29 05:36:16;;;;;;;1.73;1.00;;;;;;;;;;5128250;27;20231;-52
2021/03/29 05:38:42;;;;;;;1.77;1.00;;;;;;;;;;5123586;27;20209;-52
2021/03/29 05:41:10;;;;;;;1.80;0.93;;;;;;;;;;5118275;27;20201;-52
2021/03/29 05:43:37;;;;;;;1.55;1.08;;;;;;;;;;5099115;28;20181;-52
2021/03/29 05:46:03;;;;;;;1.92;1.20;;;;;;;;;;5118862;27;20484;-52
2021/03/29 05:48:29;;;;;;;1.15;1.02;;;;;;;;;;5131773;27;20200;-52
2021/03/29 05:50:55;;;;;;;3.65;1.17;;;;;;;;;;5117155;28;20184;-52
2021/03/29 05:53:21;;;;;;;4.18;1.50;;;;;;;;;;5117186;27;20187;-52
2021/03/29 05:55:47;;;;;;;2.30;1.10;;;;;;;;;;5116793;27;20234;-52
2021/03/29 06:00:53;;;;;;;2.92;1.13;;;;;;;;;;5131856;27;20214;-52
2021/03/29 06:03:23;;;;;;;2.83;1.00;;;;;;;;;;5109832;27;20241;-52
2021/03/29 06:05:50;;;;;;;2.78;1.30;;;;;;;;;;5136263;27;20180;-52
2021/03/29 06:08:17;;;;;;;1.38;0.80;;;;;;;;;;5120035;27;20201;-52
2021/03/29 06:10:44;;;;;;;1.73;1.13;;;;;;;;;;5128709;27;20169;-52
2021/03/29 06:13:14;;;;;;;3.83;1.27;;;;;;;;;;5130819;27;20173;-52
2021/03/29 06:15:40;;;;;;;1.55;1.00;;;;;;;;;;5098236;27;20173;-52
2021/03/29 06:18:16;;;;;;;1.95;1.13;;;;;;;;;;5124546;27;20185;-52
2021/03/29 06:20:57;;;;;;;2.67;1.00;;;;;;;;;;5136725;27;20168;-52
2021/03/29 06:23:23;;;;;;;2.45;1.02;;;;;;;;;;5136552;27;20555;-52
2021/03/29 06:25:49;;;;;;;3.03;1.08;;;;;;;;;;5123352;27;20185;-52
2021/03/29 06:28:27;;;;;;;2.08;1.20;;;;;;;;;;5131646;27;20253;-53
2021/03/29 06:30:53;;;;;;;1.55;0.95;;;;;;;;;;5135793;27;20191;-53
2021/03/29 06:33:19;;;;;;;2.10;1.10;;;;;;;;;;5127604;27;20229;-53
2021/03/29 06:35:55;;;;;;;2.15;1.10;;;;;;;;;;5115403;28;20540;-53
2021/03/29 06:38:24;;;;;;;3.40;1.23;;;;;;;;;;5133680;27;20173;-53
2021/03/29 06:40:53;;;;;;;2.67;1.20;;;;;;;;;;5131634;27;20212;-54
2021/03/29 06:43:32;;;;;;;2.33;1.33;;;;;;;;;;5115648;27;20189;-53
2021/03/29 06:46:00;;;;;;;2.22;1.00;;;;;;;;;;5114702;27;20400;-52
2021/03/29 06:48:30;;;;;;;1.63;0.98;;;;;;;;;;5132898;27;20282;-52
2021/03/29 06:51:04;;;;;;;2.00;1.13;;;;;;;;;;5136415;27;20811;-52
2021/03/29 06:53:30;;;;;;;1.13;0.90;;;;;;;;;;5135140;27;20176;-52
2021/03/29 06:55:57;;;;;;;2.60;1.42;;;;;;;;;;5115936;27;20173;-52
2021/03/29 06:58:27;;;;;;;2.15;1.35;;;;;;;;;;5118637;27;20612;-52
2021/03/29 07:00:57;;;;;;;2.25;1.20;;;;;;;;;;5115293;28;20193;-52
2021/03/29 07:03:23;;;;;;;4.07;1.30;;;;;;;;;;5113171;28;20187;-52
2021/03/29 07:05:50;;;;;;;2.20;0.90;;;;;;;;;;5114644;28;20170;-52
2021/03/29 07:08:18;;;;;;;2.22;1.20;;;;;;;;;;5115061;28;20292;-52
2021/03/29 07:10:44;;;;;;;2.70;1.30;;;;;;;;;;5117767;27;20169;-52
2021/03/29 07:13:10;;;;;;;1.77;0.90;;;;;;;;;;5115436;28;20214;-52
2021/03/29 07:15:37;;;;;;;3.10;1.20;;;;;;;;;;5114406;28;20169;-52
2021/03/29 07:18:03;;;;;;;1.38;1.00;;;;;;;;;;5115335;28;20552;-52
2021/03/29 07:20:31;;;;;;;3.30;1.20;;;;;;;;;;5114647;28;20578;-52
2021/03/29 07:22:57;;;;;;;1.60;1.10;;;;;;;;;;5115163;28;20222;-52
2021/03/29 07:25:36;;;;;;;1.85;0.95;;;;;;;;;;5127084;27;20276;-52
2021/03/29 07:28:08;;;;;;;1.58;1.23;;;;;;;;;;5116348;27;20445;-52
2021/03/29 07:30:51;;;;;;;1.38;1.00;;;;;;;;;;5114709;28;20256;-52
2021/03/29 07:33:17;;;;;;;2.92;1.23;;;;;;;;;;5114736;28;20209;-52
2021/03/29 07:35:47;;;;;;;3.08;1.27;;;;;;;;;;5129866;27;20451;-52
2021/03/29 07:38:13;;;;;;;1.67;1.08;;;;;;;;;;5135597;27;20179;-52
2021/03/29 07:40:41;;;;;;;2.03;1.10;;;;;;;;;;5134033;27;20188;-52
2021/03/29 07:43:09;;;;;;;3.45;1.20;;;;;;;;;;5119732;27;20184;-52
2021/03/29 07:45:35;;;;;;;1.88;1.00;;;;;;;;;;5113271;27;20240;-52
2021/03/29 07:48:01;;;;;;;1.73;1.00;;;;;;;;;;5114237;28;20181;-52
2021/03/29 07:50:27;;;;;;;2.72;0.90;;;;;;;;;;5113028;28;20204;-52
2021/03/29 07:52:54;;;;;;;1.70;1.10;;;;;;;;;;5126673;27;20211;-52
2021/03/29 07:55:26;;;;;;;2.55;1.35;;;;;;;;;;5123215;27;20259;-52
2021/03/29 07:57:55;;;;;;;1.20;1.00;;;;;;;;;;5115479;27;20196;-52
2021/03/29 08:00:24;;;;;;;1.13;1.00;;;;;;;;;;5113691;28;20177;-52
2021/03/29 08:02:50;;;;;;;1.58;0.95;;;;;;;;;;5114505;28;20204;-52
2021/03/29 08:05:35;;;;;;;3.42;1.42;;;;;;;;;;5119945;27;20180;-52
2021/03/29 08:08:05;;;;;;;1.30;1.08;;;;;;;;;;5117948;27;20253;-52
2021/03/29 08:10:50;;;;;;;1.80;0.90;;;;;;;;;;5116929;27;20529;-52
2021/03/29 08:13:35;;;;;;;1.63;1.15;;;;;;;;;;5119828;27;20196;-52
2021/03/29 08:16:02;;;;;;;1.02;0.85;;;;;;;;;;5129292;27;20177;-52
2021/03/29 08:18:28;;;;;;;1.65;1.00;;;;;;;;;;5134593;27;20226;-52
2021/03/29 08:20:54;;;;;;;1.92;1.10;;;;;;;;;;5133011;27;20184;-52
2021/03/29 08:23:31;;;;;;;2.22;1.30;;;;;;;;;;5134379;28;20215;-52
2021/03/29 08:26:11;;;;;;;0.90;0.80;;;;;;;;;;5132200;27;20181;-52
2021/03/29 08:29:03;;;;;;;1.35;0.90;;;;;;;;;;5119067;28;20199;-52
2021/03/29 08:31:48;;;;;;;2.22;1.00;;;;;;;;;;5126656;28;20192;-52
2021/03/29 08:34:18;;;;;;;1.73;1.02;;;;;;;;;;5130720;28;20208;-52
2021/03/29 08:36:44;;;;;;;1.75;0.88;;;;;;;;;;5123738;27;20735;-52
2021/03/29 08:39:11;;;;;;;1.15;0.95;;;;;;;;;;5118088;28;20292;-52
2021/03/29 08:41:37;;;;;;;1.00;0.90;;;;;;;;;;5131630;28;20293;-52
2021/03/29 08:44:05;;;;;;;1.05;0.80;;;;;;;;;;5130703;28;20195;-52
2021/03/29 08:46:32;;;;;;;1.25;1.00;;;;;;;;;;5122451;28;20631;-52
2021/03/29 08:48:58;;;;;;;1.40;0.80;;;;;;;;;;5126149;28;20225;-52
2021/03/29 08:51:27;;;;;;;1.13;0.65;;;;;;;;;;5118103;28;20258;-52
2021/03/29 08:54:09;;;;;;;4.00;0.90;;;;;;;;;;5121367;28;20184;-52
2021/03/29 08:56:41;;;;;;;1.95;1.20;;;;;;;;;;5127200;28;20169;-52
2021/03/29 08:59:07;;;;;;;1.67;0.68;;;;;;;;;;5124843;28;20176;-52
2021/03/29 09:01:33;;;;;;;1.65;0.90;;;;;;;;;;5132893;27;20226;-52
2021/03/29 09:04:03;;;;;;;1.30;0.93;;;;;;;;;;5138060;27;20677;-52
2021/03/29 09:06:31;;;;;;;1.48;0.80;;;;;;;;;;5126560;27;20184;-52
2021/03/29 09:08:57;;;;;;;1.55;1.00;;;;;;;;;;5130772;27;20223;-52
2021/03/29 09:11:23;;;;;;;1.33;0.90;;;;;;;;;;5132596;27;20177;-52
2021/03/29 09:13:54;;;;;;;1.08;0.70;;;;;;;;;;5124476;27;20176;-52
2021/03/29 09:16:24;;;;;;;1.58;0.98;;;;;;;;;;5122611;27;20173;-52
2021/03/29 09:18:50;;;;;;;1.60;0.80;;;;;;;;;;5135811;27;20579;-52
2021/03/29 09:21:24;;;;;;;1.20;0.90;;;;;;;;;;5122138;27;20204;-52
2021/03/29 09:23:50;;;;;;;2.17;0.98;;;;;;;;;;5123374;27;20186;-52
2021/03/29 09:26:24;;;;;;;4.72;1.10;;;;;;;;;;5134479;27;20181;-52
2021/03/29 09:28:52;;;;;;;2.83;0.90;;;;;;;;;;5125629;27;20210;-52
2021/03/29 09:31:20;;;;;;;1.25;1.02;;;;;;;;;;5122071;27;20188;-52
2021/03/29 09:33:47;;;;;;;4.07;0.90;;;;;;;;;;5118750;27;20207;-52
2021/03/29 09:36:15;;;;;;;1.88;0.90;;;;;;;;;;5131942;27;20945;-52
2021/03/29 09:38:42;;;;;;;3.90;1.42;;;;;;;;;;5128752;27;20571;-52
2021/03/29 09:41:15;;;;;;;1.67;1.00;;;;;;;;;;5123875;27;20220;-52
2021/03/29 09:43:42;;;;;;;1.33;1.00;;;;;;;;;;5137201;27;20176;-52
2021/03/29 09:46:08;;;;;;;4.97;1.17;;;;;;;;;;5123230;27;20189;-52
2021/03/29 09:48:34;;;;;;;2.30;1.08;;;;;;;;;;5127289;27;20574;-52
2021/03/29 09:51:00;;;;;;;2.88;1.20;;;;;;;;;;5134593;27;20236;-52
2021/03/29 09:53:32;;;;;;;1.52;1.00;;;;;;;;;;5134158;27;20458;-52
2021/03/29 09:56:03;;;;;;;2.55;0.93;;;;;;;;;;5126604;27;20176;-52
2021/03/29 09:58:30;;;;;;;4.00;1.30;;;;;;;;;;5136919;27;20229;-52
2021/03/29 10:01:01;;;;;;;2.60;1.05;;;;;;;;;;5125377;27;20261;-52
2021/03/29 10:03:28;;;;;;;4.18;1.38;;;;;;;;;;5135393;27;20703;-52
2021/03/29 10:05:55;;;;;;;3.22;1.13;;;;;;;;;;5122275;27;20587;-52
2021/03/29 10:08:24;;;;;;;3.97;1.10;;;;;;;;;;5134468;27;20208;-52
2021/03/29 10:11:00;;;;;;;1.38;0.90;;;;;;;;;;5127107;27;20251;-52
2021/03/29 10:13:33;;;;;;;3.85;1.15;;;;;;;;;;5120525;27;20246;-52
2021/03/29 10:16:15;;;;;;;2.13;1.10;;;;;;;;;;5120738;27;20555;-52
2021/03/29 10:18:41;;;;;;;3.88;1.45;;;;;;;;;;5124189;27;20209;-52
2021/03/29 10:21:07;;;;;;;3.58;1.38;;;;;;;;;;5122092;27;20181;-52
2021/03/29 10:23:33;;;;;;;5.10;1.30;;;;;;;;;;5125446;27;20216;-52
2021/03/29 10:26:20;;;;;;;4.15;1.60;;;;;;;;;;5115689;28;20185;-52
2021/03/29 10:28:56;;;;;;;2.47;1.48;;;;;;;;;;5117317;27;20204;-52
2021/03/29 10:31:23;;;;;;;2.97;1.60;;;;;;;;;;5127759;27;20202;-52
2021/03/29 10:33:49;;;;;;;5.05;1.95;;;;;;;;;;5116367;28;20176;-52
2021/03/29 10:36:19;;;;;;;5.43;1.80;;;;;;;;;;5123528;27;20180;-52
2021/03/29 10:38:45;;;;;;;2.88;1.77;;;;;;;;;;5130541;27;20212;-52
2021/03/29 10:41:12;;;;;;;5.10;2.17;;;;;;;;;;5126845;27;20185;-52
2021/03/29 10:43:38;;;;;;;14.05;9.73;;;;;;;;;;5109558;27;21105;-52
2021/03/29 10:46:05;;;;;;;96.68;65.65;;;;;;;;;;5126569;27;20264;-52
2021/03/29 10:48:31;;;;;;;291.10;180.77;;;;;;;;;;5121273;27;20192;-52
2021/03/29 10:50:58;;;;;;;336.30;217.43;;;;;;;;;;5136525;27;20563;-52
2021/03/29 10:53:24;;;;;;;353.85;226.80;;;;;;;;;;5131580;27;20195;-52
2021/03/29 10:55:50;;;;;;;310.10;200.52;;;;;;;;;;5124217;27;20176;-52
2021/03/29 10:58:16;;;;;;;239.75;147.63;;;;;;;;;;5115978;27;20181;-52
2021/03/29 11:00:42;;;;;;;216.68;128.27;;;;;;;;;;5115180;28;20201;-52
2021/03/29 11:03:08;;;;;;;146.15;89.00;;;;;;;;;;5118097;27;20509;-52
2021/03/29 11:05:34;;;;;;;127.25;79.05;;;;;;;;;;5114471;27;20188;-52
2021/03/29 11:08:01;;;;;;;97.75;57.65;;;;;;;;;;5130268;27;20269;-52
2021/03/29 11:10:27;;;;;;;84.47;46.67;;;;;;;;;;5131515;27;20216;-52
2021/03/29 11:12:53;;;;;;;70.35;41.85;;;;;;;;;;5116754;27;20173;-52
2021/03/29 11:15:19;;;;;;;56.15;32.05;;;;;;;;;;5135283;27;20184;-52
2021/03/29 11:17:45;;;;;;;39.03;22.33;;;;;;;;;;5101308;28;20302;-52
2021/03/29 11:20:12;;;;;;;29.00;16.85;;;;;;;;;;5129465;27;20189;-52
2021/03/29 11:22:38;;;;;;;25.80;15.68;;;;;;;;;;5123251;27;20177;-52
2021/03/29 11:25:05;;;;;;;29.58;16.80;;;;;;;;;;5126427;27;20514;-53
2021/03/29 11:27:31;;;;;;;33.33;18.58;;;;;;;;;;5118081;27;20193;-52
2021/03/29 11:29:57;;;;;;;41.33;21.83;;;;;;;;;;5126743;27;20551;-52
2021/03/29 11:32:25;;;;;;;31.85;18.17;;;;;;;;;;5134904;27;20172;-51
2021/03/29 11:34:51;;;;;;;31.55;18.80;;;;;;;;;;5126520;27;20184;-51
2021/03/29 11:37:17;;;;;;;33.30;19.85;;;;;;;;;;5127375;27;20192;-52
2021/03/29 11:39:43;;;;;;;35.03;18.73;;;;;;;;;;5121866;27;20625;-52
2021/03/29 11:42:09;;;;;;;30.95;17.20;;;;;;;;;;5124516;27;20223;-52
2021/03/29 11:44:35;;;;;;;33.22;17.58;;;;;;;;;;5118797;27;20190;-52
2021/03/29 11:47:01;;;;;;;29.92;15.77;;;;;;;;;;5125142;27;20180;-52
2021/03/29 11:49:27;;;;;;;27.60;16.08;;;;;;;;;;5123614;27;21651;-52
2021/03/29 11:51:53;;;;;;;27.02;14.88;;;;;;;;;;5115499;27;20178;-52
2021/03/29 11:54:19;;;;;;;22.60;13.45;;;;;;;;;;5119353;27;20254;-52
2021/03/29 11:56:45;;;;;;;21.45;13.80;;;;;;;;;;5113405;28;20170;-52
2021/03/29 11:59:11;;;;;;;22.92;13.20;;;;;;;;;;5122934;27;20225;-52
2021/03/29 12:01:48;;;;;;;22.25;12.32;;;;;;;;;;5133306;27;20231;-52
2021/03/29 12:07:00;;;;;;;20.63;12.07;;;;;;;;;;5126113;27;20594;-52
2021/03/29 12:11:49;;;;;;;17.33;11.63;;;;;;;;;;5113715;27;20199;-52
2021/03/29 12:12:19;;;;;;;17.83;9.88;;;;;;;;;;5108891;28;20189;-52
2021/03/29 12:14:45;;;;;;;16.67;9.73;;;;;;;;;;5125045;27;20226;-52
2021/03/29 12:17:13;;;;;;;19.73;10.40;;;;;;;;;;5117314;27;20173;-52
2021/03/29 12:19:40;;;;;;;18.52;9.80;;;;;;;;;;5122001;27;20231;-52
2021/03/29 12:22:11;;;;;;;17.58;9.75;;;;;;;;;;5126124;27;20172;-52
2021/03/29 12:24:40;;;;;;;16.42;9.02;;;;;;;;;;5133176;27;20191;-52
2021/03/29 12:27:06;;;;;;;16.10;9.00;;;;;;;;;;5134238;28;20176;-52
2021/03/29 12:29:40;;;;;;;16.27;8.70;;;;;;;;;;5118422;28;20659;-52
2021/03/29 12:32:07;;;;;;;13.88;8.40;;;;;;;;;;5131465;28;20183;-52
2021/03/29 12:34:34;;;;;;;12.60;7.18;;;;;;;;;;5125984;28;20419;-52
2021/03/29 12:37:02;;;;;;;18.48;8.85;;;;;;;;;;5117271;27;20429;-52
2021/03/29 12:39:43;;;;;;;14.52;8.05;;;;;;;;;;5133366;27;20834;-52
2021/03/29 12:42:12;;;;;;;13.85;7.53;;;;;;;;;;5128590;27;20230;-52
2021/03/29 12:44:38;;;;;;;16.10;6.82;;;;;;;;;;5122452;27;20181;-52
2021/03/29 12:47:11;;;;;;;14.82;7.28;;;;;;;;;;5132865;27;20180;-52
2021/03/29 12:49:37;;;;;;;16.45;6.57;;;;;;;;;;5137055;27;20220;-52
2021/03/29 12:52:03;;;;;;;11.63;6.25;;;;;;;;;;5124752;27;20188;-52
2021/03/29 12:54:35;;;;;;;15.30;5.95;;;;;;;;;;5137962;27;20195;-52
2021/03/29 12:57:01;;;;;;;12.60;6.53;;;;;;;;;;5138965;27;20188;-52
2021/03/29 12:59:28;;;;;;;14.30;6.78;;;;;;;;;;5129908;27;20173;-52
2021/03/29 13:01:55;;;;;;;11.20;5.78;;;;;;;;;;5136945;27;20176;-52
2021/03/29 13:04:25;;;;;;;10.15;5.20;;;;;;;;;;5132849;27;20169;-52
2021/03/29 13:11:57;;;;;;;9.82;5.63;;;;;;;;;;5130369;27;20306;-52
2021/03/29 13:14:24;;;;;;;9.55;4.97;;;;;;;;;;5127439;27;20533;-52
2021/03/29 13:16:50;;;;;;;9.65;4.97;;;;;;;;;;5120486;27;20177;-52
2021/03/29 13:19:16;;;;;;;7.78;4.80;;;;;;;;;;5119208;27;20571;-52
2021/03/29 13:21:42;;;;;;;10.57;4.63;;;;;;;;;;5129168;27;20189;-52
2021/03/29 13:24:10;;;;;;;13.48;5.10;;;;;;;;;;5135023;27;20186;-52
2021/03/29 13:26:37;;;;;;;20.15;6.07;;;;;;;;;;5137834;27;20176;-52
2021/03/29 13:29:03;;;;;;;20.40;6.22;;;;;;;;;;5129779;27;20203;-52
2021/03/29 13:31:29;;;;;;;21.65;5.63;;;;;;;;;;5133015;27;20194;-52
2021/03/29 13:33:55;;;;;;;20.42;6.38;;;;;;;;;;5136121;27;20168;-52
2021/03/29 13:36:22;;;;;;;26.45;6.93;;;;;;;;;;5116360;28;20256;-52
2021/03/29 13:38:48;;;;;;;23.67;7.10;;;;;;;;;;5099954;28;20184;-52
2021/03/29 13:41:14;;;;;;;32.42;7.35;;;;;;;;;;5130380;27;20245;-52
2021/03/29 13:43:41;;;;;;;31.73;8.57;;;;;;;;;;5125224;27;20185;-52
2021/03/29 13:46:07;;;;;;;34.05;7.85;;;;;;;;;;5121218;27;20189;-51
2021/03/29 13:48:34;;;;;;;37.80;8.30;;;;;;;;;;5124186;27;20200;-52
2021/03/29 13:51:01;;;;;;;43.50;8.90;;;;;;;;;;5130873;27;20218;-53
2021/03/29 13:53:30;;;;;;;32.13;9.02;;;;;;;;;;5125318;27;20216;-52
2021/03/29 13:55:57;;;;;;;29.08;8.02;;;;;;;;;;5116412;28;20211;-52
2021/03/29 13:58:23;;;;;;;36.17;9.10;;;;;;;;;;5118171;27;20177;-52
2021/03/29 14:00:50;;;;;;;34.63;9.82;;;;;;;;;;5135512;27;20203;-52
2021/03/29 14:03:16;;;;;;;33.03;9.13;;;;;;;;;;5137448;27;20212;-53
2021/03/29 14:05:43;;;;;;;34.13;9.57;;;;;;;;;;5130292;27;20177;-52
2021/03/29 14:08:09;;;;;;;37.60;9.40;;;;;;;;;;5119535;27;20260;-52
2021/03/29 14:10:36;;;;;;;40.58;8.45;;;;;;;;;;5105074;28;20625;-52
2021/03/29 14:13:03;;;;;;;32.45;7.72;;;;;;;;;;5122691;27;20222;-52
2021/03/29 14:15:29;;;;;;;27.35;8.00;;;;;;;;;;5115856;28;20324;-52
2021/03/29 14:17:55;;;;;;;26.17;6.72;;;;;;;;;;5116696;28;20603;-52
2021/03/29 14:20:21;;;;;;;24.75;7.15;;;;;;;;;;5128997;27;20222;-52
2021/03/29 14:22:48;;;;;;;20.63;5.72;;;;;;;;;;5129476;27;20567;-52
2021/03/29 14:25:15;;;;;;;25.45;6.25;;;;;;;;;;5123846;27;20664;-52
2021/03/29 14:27:41;;;;;;;25.85;6.50;;;;;;;;;;5135527;27;20180;-52
2021/03/29 14:30:08;;;;;;;21.85;6.88;;;;;;;;;;5123169;27;20200;-52
2021/03/29 14:32:34;;;;;;;17.08;6.30;;;;;;;;;;5136059;27;20188;-52
2021/03/29 14:35:23;;;;;;;25.15;6.70;;;;;;;;;;5126684;27;20193;-52
2021/03/29 14:38:00;;;;;;;23.15;5.57;;;;;;;;;;5116904;27;20185;-52
2021/03/29 14:43:03;;;;;;;18.38;6.78;;;;;;;;;;5127752;27;20184;-52
2021/03/29 14:45:29;;;;;;;20.45;6.07;;;;;;;;;;5126647;27;20391;-52
2021/03/29 14:47:55;;;;;;;19.60;6.18;;;;;;;;;;5116215;28;20533;-53
2021/03/29 14:50:21;;;;;;;17.38;6.20;;;;;;;;;;5128544;27;20253;-52
2021/03/29 14:52:47;;;;;;;20.00;5.80;;;;;;;;;;5134180;27;20609;-52
2021/03/29 14:55:15;;;;;;;21.58;5.72;;;;;;;;;;5133918;27;20446;-52
2021/03/29 14:57:41;;;;;;;19.90;5.63;;;;;;;;;;5135001;27;20195;-52
2021/03/29 15:00:09;;;;;;;17.67;5.68;;;;;;;;;;5122461;27;20194;-52